Time;durP1;ratioP1;P1;durP2;ratioP2;P2;SDS_P1;SDS_P2;PMS_P1;PMS_P2;Temp;Humidity;BMP_temperature;BMP_pressure;BME280_temperature;BME280_humidity;BME280_pressure;Samples;Min_cycle;Max_cycle;Signal;HPM_P1;HPM_P2
2021/03/30 00:01:31;;;;;;;;;;;23.50;52.00;;;;;;4965032;28;19911;-60
2021/03/30 00:03:57;;;;;;;;;;;23.50;51.90;;;;;;4955648;29;20018;-59
2021/03/30 00:06:22;;;;;;;;;;;23.40;51.80;;;;;;4950632;28;19917;-59
2021/03/30 00:08:48;;;;;;;;;;;23.50;52.50;;;;;;4976728;28;19909;-59
2021/03/30 00:11:14;;;;;;;;;;;23.50;51.80;;;;;;4968885;28;19918;-60
2021/03/30 00:13:40;;;;;;;;;;;23.50;51.80;;;;;;4965757;28;19910;-59
2021/03/30 00:16:06;;;;;;;;;;;23.50;51.80;;;;;;4938652;29;20041;-59
2021/03/30 00:18:32;;;;;;;;;;;23.50;51.80;;;;;;4945902;28;19913;-59
2021/03/30 00:20:58;;;;;;;;;;;23.50;51.80;;;;;;4974670;28;19918;-60
2021/03/30 00:23:24;;;;;;;;;;;23.50;51.80;;;;;;4968747;28;19914;-59
2021/03/30 00:25:50;;;;;;;;;;;23.50;51.60;;;;;;4966896;28;19929;-59
2021/03/30 00:28:16;;;;;;;;;;;23.50;51.50;;;;;;4973672;28;19925;-59
2021/03/30 00:30:41;;;;;;;;;;;23.50;51.40;;;;;;4957063;28;19972;-59
2021/03/30 00:33:07;;;;;;;;;;;23.50;51.30;;;;;;4963726;28;19937;-59
2021/03/30 00:35:33;;;;;;;;;;;23.50;51.20;;;;;;4960573;28;19921;-59
2021/03/30 00:37:59;;;;;;;;;;;23.50;51.10;;;;;;4969765;28;20284;-59
2021/03/30 00:40:25;;;;;;;;;;;23.50;51.00;;;;;;4989486;28;19925;-60
2021/03/30 00:42:54;;;;;;;;;;;23.50;51.00;;;;;;4962271;28;19914;-59
2021/03/30 00:45:20;;;;;;;;;;;23.50;50.90;;;;;;4973383;28;19913;-60
2021/03/30 00:47:46;;;;;;;;;;;23.50;50.90;;;;;;4955518;29;19910;-59
2021/03/30 00:50:15;;;;;;;;;;;23.50;50.80;;;;;;4955485;28;19914;-59
2021/03/30 00:52:43;;;;;;;;;;;23.50;50.80;;;;;;4973479;28;19988;-59
2021/03/30 00:55:41;;;;;;;;;;;23.50;50.70;;;;;;4932176;28;19910;-60
2021/03/30 00:58:07;;;;;;;;;;;23.50;50.70;;;;;;4968497;28;19952;-59
2021/03/30 01:00:33;;;;;;;;;;;23.50;50.60;;;;;;4944531;28;19910;-59
2021/03/30 01:02:59;;;;;;;;;;;23.50;50.60;;;;;;4977920;28;20009;-59
2021/03/30 01:05:25;;;;;;;;;;;23.50;50.60;;;;;;4964983;28;19973;-59
2021/03/30 01:07:59;;;;;;;;;;;23.50;50.60;;;;;;4974321;28;20002;-59
2021/03/30 01:10:46;;;;;;;;;;;23.40;50.50;;;;;;4998096;28;19927;-60
2021/03/30 01:13:15;;;;;;;;;;;23.40;50.50;;;;;;4959078;29;19910;-60
2021/03/30 01:16:03;;;;;;;;;;;23.40;50.50;;;;;;4959321;28;19911;-59
2021/03/30 01:18:32;;;;;;;;;;;23.40;50.50;;;;;;4941821;29;19911;-60
2021/03/30 01:21:17;;;;;;;;;;;23.40;50.40;;;;;;4965654;28;19910;-60
2021/03/30 01:23:49;;;;;;;;;;;23.40;50.40;;;;;;4977999;28;19914;-60
2021/03/30 01:26:26;;;;;;;;;;;23.40;50.40;;;;;;4977630;28;19980;-60
2021/03/30 01:29:02;;;;;;;;;;;23.40;50.50;;;;;;4978704;28;20375;-59
2021/03/30 01:31:31;;;;;;;;;;;23.40;50.50;;;;;;4986438;28;19995;-60
2021/03/30 01:33:58;;;;;;;;;;;23.40;50.40;;;;;;4954356;28;19950;-60
2021/03/30 01:36:24;;;;;;;;;;;23.40;50.40;;;;;;4956082;28;19915;-60
2021/03/30 01:38:51;;;;;;;;;;;23.40;50.50;;;;;;4991946;28;19953;-59
2021/03/30 01:41:17;;;;;;;;;;;23.40;50.40;;;;;;4972639;28;19906;-60
2021/03/30 01:43:44;;;;;;;;;;;23.40;50.40;;;;;;4977883;28;19913;-59
2021/03/30 01:46:11;;;;;;;;;;;23.30;50.30;;;;;;4958010;28;19945;-60
2021/03/30 01:48:37;;;;;;;;;;;23.30;50.40;;;;;;4959581;28;19910;-60
2021/03/30 01:51:04;;;;;;;;;;;23.40;50.40;;;;;;4958673;28;19997;-59
2021/03/30 01:53:30;;;;;;;;;;;23.40;50.40;;;;;;4974607;28;19922;-60
2021/03/30 01:55:58;;;;;;;;;;;23.30;50.30;;;;;;4958205;28;19941;-60
2021/03/30 01:58:25;;;;;;;;;;;23.40;50.40;;;;;;4975837;28;19913;-60
2021/03/30 02:00:53;;;;;;;;;;;23.30;50.30;;;;;;4944099;28;19917;-60
2021/03/30 02:03:19;;;;;;;;;;;23.40;50.40;;;;;;4977795;28;20017;-59
2021/03/30 02:05:45;;;;;;;;;;;23.30;50.30;;;;;;4972753;28;20009;-59
2021/03/30 02:08:12;;;;;;;;;;;23.40;50.40;;;;;;4984939;28;20328;-60
2021/03/30 02:13:08;;;;;;;;;;;23.30;50.30;;;;;;4968534;28;19913;-60
2021/03/30 02:15:34;;;;;;;;;;;23.30;50.40;;;;;;4975138;28;19917;-59
2021/03/30 02:17:59;;;;;;;;;;;23.30;50.30;;;;;;4958947;28;19910;-60
2021/03/30 02:20:29;;;;;;;;;;;23.30;50.30;;;;;;4960512;28;19945;-60
2021/03/30 02:22:55;;;;;;;;;;;23.30;50.40;;;;;;4953298;28;20384;-60
2021/03/30 02:25:22;;;;;;;;;;;23.30;50.40;;;;;;4977157;28;19910;-60
2021/03/30 02:27:49;;;;;;;;;;;23.30;50.40;;;;;;4968568;28;19910;-60
2021/03/30 02:30:17;;;;;;;;;;;23.30;50.40;;;;;;4959929;28;20383;-60
2021/03/30 02:32:43;;;;;;;;;;;23.30;50.40;;;;;;4976000;28;19953;-59
2021/03/30 02:35:10;;;;;;;;;;;23.30;50.40;;;;;;4976136;28;20049;-60
2021/03/30 02:37:36;;;;;;;;;;;23.30;50.40;;;;;;4969328;28;19910;-60
2021/03/30 02:40:08;;;;;;;;;;;23.20;50.30;;;;;;4978934;28;19910;-60
2021/03/30 02:42:35;;;;;;;;;;;23.20;50.30;;;;;;4978570;28;19921;-60
2021/03/30 02:45:02;;;;;;;;;;;23.20;50.30;;;;;;4986273;28;20248;-60
2021/03/30 02:47:28;;;;;;;;;;;23.20;50.40;;;;;;4976319;28;19917;-60
2021/03/30 02:49:54;;;;;;;;;;;23.20;50.40;;;;;;4943422;29;19906;-60
2021/03/30 02:52:22;;;;;;;;;;;23.20;50.40;;;;;;4958074;28;19910;-59
2021/03/30 02:54:48;;;;;;;;;;;23.20;50.40;;;;;;4975166;28;19916;-60
2021/03/30 02:57:15;;;;;;;;;;;23.20;50.40;;;;;;4942372;28;19921;-60
2021/03/30 02:59:41;;;;;;;;;;;23.20;50.50;;;;;;4959310;28;19937;-59
2021/03/30 03:02:07;;;;;;;;;;;23.20;50.50;;;;;;4943924;29;19969;-60
2021/03/30 03:04:34;;;;;;;;;;;23.20;50.50;;;;;;4973355;28;19928;-60
2021/03/30 03:07:02;;;;;;;;;;;23.20;50.50;;;;;;4973478;28;19910;-60
2021/03/30 03:09:29;;;;;;;;;;;23.20;50.50;;;;;;4976111;28;19906;-60
2021/03/30 03:11:55;;;;;;;;;;;23.20;50.50;;;;;;4975694;28;19913;-60
2021/03/30 03:14:22;;;;;;;;;;;23.20;50.50;;;;;;4962646;28;20360;-60
2021/03/30 03:16:48;;;;;;;;;;;23.20;50.50;;;;;;4976179;28;19914;-60
2021/03/30 03:19:16;;;;;;;;;;;23.20;50.50;;;;;;4957787;28;20368;-60
2021/03/30 03:21:42;;;;;;;;;;;23.20;50.50;;;;;;4975860;28;19997;-61
2021/03/30 03:24:09;;;;;;;;;;;23.20;50.60;;;;;;4974439;28;19912;-60
2021/03/30 03:26:36;;;;;;;;;;;23.20;50.50;;;;;;4954406;28;19957;-59
2021/03/30 03:29:02;;;;;;;;;;;23.20;50.60;;;;;;4957024;28;19933;-66
2021/03/30 03:31:28;;;;;;;;;;;23.20;50.60;;;;;;4976055;28;20284;-65
2021/03/30 03:34:00;;;;;;;;;;;23.20;50.60;;;;;;4975457;28;20062;-66
2021/03/30 03:36:33;;;;;;;;;;;23.20;50.50;;;;;;4939735;28;20364;-66
2021/03/30 03:38:59;;;;;;;;;;;23.20;50.60;;;;;;4938466;28;19917;-65
2021/03/30 03:41:25;;;;;;;;;;;23.20;50.60;;;;;;4995370;28;19914;-65
2021/03/30 03:43:50;;;;;;;;;;;23.20;50.50;;;;;;4970602;28;19921;-66
2021/03/30 03:46:17;;;;;;;;;;;23.20;50.60;;;;;;4967306;28;19961;-66
2021/03/30 03:48:43;;;;;;;;;;;23.20;50.60;;;;;;4973962;28;19910;-66
2021/03/30 03:51:09;;;;;;;;;;;23.10;50.50;;;;;;4939650;29;19911;-66
2021/03/30 03:53:36;;;;;;;;;;;23.20;50.60;;;;;;4975675;28;19961;-65
2021/03/30 03:56:02;;;;;;;;;;;23.20;50.60;;;;;;4974510;28;19960;-66
2021/03/30 03:58:30;;;;;;;;;;;23.10;50.50;;;;;;4958440;28;20352;-66
2021/03/30 04:00:55;;;;;;;;;;;23.20;50.60;;;;;;4956892;28;19972;-65
2021/03/30 04:03:26;;;;;;;;;;;23.20;50.60;;;;;;4957221;28;19977;-66
2021/03/30 04:06:01;;;;;;;;;;;23.20;50.60;;;;;;4960051;28;20380;-66
2021/03/30 04:08:29;;;;;;;;;;;23.10;50.50;;;;;;4938857;29;20383;-66
2021/03/30 04:10:56;;;;;;;;;;;23.10;50.60;;;;;;4955043;29;19914;-66
2021/03/30 04:13:22;;;;;;;;;;;23.10;50.60;;;;;;4943517;29;19907;-65
2021/03/30 04:15:48;;;;;;;;;;;23.10;50.60;;;;;;4942870;28;19937;-66
2021/03/30 04:18:14;;;;;;;;;;;23.10;50.60;;;;;;4976901;28;20335;-66
2021/03/30 04:20:40;;;;;;;;;;;23.10;50.60;;;;;;4958290;28;20268;-66
2021/03/30 04:23:06;;;;;;;;;;;23.10;50.50;;;;;;4956098;29;19917;-65
2021/03/30 04:25:32;;;;;;;;;;;23.10;50.50;;;;;;4954843;28;19914;-66
2021/03/30 04:27:58;;;;;;;;;;;23.10;50.50;;;;;;4975648;28;19953;-66
2021/03/30 04:30:24;;;;;;;;;;;23.10;50.50;;;;;;4956369;28;19907;-66
2021/03/30 04:32:51;;;;;;;;;;;23.10;50.50;;;;;;4938745;29;20280;-66
2021/03/30 04:35:16;;;;;;;;;;;23.10;50.50;;;;;;4971960;28;19906;-59
2021/03/30 04:37:42;;;;;;;;;;;23.10;50.50;;;;;;4974832;28;19997;-59
2021/03/30 04:40:11;;;;;;;;;;;23.10;50.50;;;;;;4973166;28;19910;-59
2021/03/30 04:42:37;;;;;;;;;;;23.10;50.50;;;;;;4957415;28;19914;-60
2021/03/30 04:45:04;;;;;;;;;;;23.10;50.50;;;;;;4928080;29;20267;-60
2021/03/30 04:47:30;;;;;;;;;;;23.10;50.50;;;;;;4938315;29;19910;-60
2021/03/30 04:49:56;;;;;;;;;;;23.10;50.50;;;;;;4955539;28;20414;-60
2021/03/30 04:52:22;;;;;;;;;;;23.10;50.50;;;;;;4922409;29;19911;-59
2021/03/30 04:54:48;;;;;;;;;;;23.10;50.50;;;;;;4923289;29;19914;-60
2021/03/30 04:57:14;;;;;;;;;;;23.10;50.50;;;;;;4938235;29;19911;-59
2021/03/30 04:59:40;;;;;;;;;;;23.10;50.50;;;;;;4963168;28;19986;-60
2021/03/30 05:02:06;;;;;;;;;;;23.10;50.40;;;;;;4974773;28;19956;-60
2021/03/30 05:04:31;;;;;;;;;;;23.10;50.40;;;;;;4973009;28;19961;-60
2021/03/30 05:06:57;;;;;;;;;;;23.10;50.50;;;;;;4957301;28;19914;-60
2021/03/30 05:09:23;;;;;;;;;;;23.00;50.40;;;;;;4969579;28;20376;-60
2021/03/30 05:11:49;;;;;;;;;;;23.00;50.40;;;;;;4955459;29;19993;-60
2021/03/30 05:14:15;;;;;;;;;;;23.00;50.40;;;;;;4956357;28;20365;-60
2021/03/30 05:16:40;;;;;;;;;;;23.00;50.40;;;;;;4955251;29;19997;-59
2021/03/30 05:19:06;;;;;;;;;;;23.00;50.40;;;;;;4939024;28;19910;-57
2021/03/30 05:21:32;;;;;;;;;;;23.00;50.40;;;;;;4974488;28;19964;-59
2021/03/30 05:23:58;;;;;;;;;;;23.00;50.40;;;;;;4985670;28;19910;-59
2021/03/30 05:26:24;;;;;;;;;;;23.00;50.40;;;;;;4993953;28;19909;-58
2021/03/30 05:28:50;;;;;;;;;;;23.00;50.40;;;;;;4980618;28;19910;-59
2021/03/30 05:31:15;;;;;;;;;;;23.00;50.40;;;;;;4974297;28;20410;-59
2021/03/30 05:33:41;;;;;;;;;;;23.00;50.40;;;;;;4946908;29;19907;-59
2021/03/30 05:36:08;;;;;;;;;;;23.00;50.40;;;;;;4954866;29;19910;-59
2021/03/30 05:38:34;;;;;;;;;;;23.00;50.40;;;;;;4946771;28;19946;-58
2021/03/30 05:41:05;;;;;;;;;;;23.00;50.40;;;;;;4975137;28;19992;-59
2021/03/30 05:43:32;;;;;;;;;;;22.90;50.30;;;;;;4953433;29;20008;-58
2021/03/30 05:45:59;;;;;;;;;;;23.00;50.40;;;;;;4925401;29;20344;-59
2021/03/30 05:48:25;;;;;;;;;;;23.00;50.40;;;;;;4964773;28;19914;-58
2021/03/30 05:50:51;;;;;;;;;;;23.00;50.40;;;;;;4977317;28;19965;-58
2021/03/30 05:53:17;;;;;;;;;;;22.90;50.30;;;;;;4977138;28;19910;-60
2021/03/30 05:55:44;;;;;;;;;;;23.00;50.40;;;;;;4942877;28;19910;-60
2021/03/30 05:58:10;;;;;;;;;;;22.90;50.30;;;;;;4977767;28;19910;-60
2021/03/30 06:00:37;;;;;;;;;;;22.90;50.30;;;;;;4959276;28;19906;-60
2021/03/30 06:03:04;;;;;;;;;;;22.90;50.30;;;;;;4957462;29;19976;-60
2021/03/30 06:05:30;;;;;;;;;;;22.90;50.30;;;;;;4941035;28;19917;-59
2021/03/30 06:07:57;;;;;;;;;;;22.90;50.20;;;;;;4968250;28;19920;-60
2021/03/30 06:10:24;;;;;;;;;;;22.90;50.30;;;;;;4976601;28;20356;-58
2021/03/30 06:12:50;;;;;;;;;;;22.90;50.20;;;;;;4976507;28;19917;-57
2021/03/30 06:15:16;;;;;;;;;;;22.90;50.20;;;;;;4976789;28;19910;-58
2021/03/30 06:17:46;;;;;;;;;;;22.90;50.20;;;;;;4959165;28;20357;-58
2021/03/30 06:20:25;;;;;;;;;;;22.90;50.20;;;;;;4976147;28;20333;-58
2021/03/30 06:22:52;;;;;;;;;;;22.90;50.80;;;;;;4991990;28;19914;-59
2021/03/30 06:25:55;;;;;;;;;;;22.80;50.20;;;;;;4964735;28;19989;-58
2021/03/30 06:28:22;;;;;;;;;;;22.90;50.20;;;;;;4917531;29;19911;-59
2021/03/30 06:30:56;;;;;;;;;;;22.90;50.20;;;;;;4917719;29;19915;-58
2021/03/30 06:33:22;;;;;;;;;;;22.90;50.20;;;;;;4917586;29;20321;-59
2021/03/30 06:35:49;;;;;;;;;;;22.90;50.20;;;;;;4932974;29;20001;-59
2021/03/30 06:38:15;;;;;;;;;;;22.90;50.30;;;;;;4936319;29;19961;-59
2021/03/30 06:40:44;;;;;;;;;;;22.90;50.20;;;;;;4924540;29;19915;-58
2021/03/30 06:46:09;;;;;;;;;;;22.90;50.20;;;;;;4934380;29;19917;-58
2021/03/30 06:48:37;;;;;;;;;;;22.80;50.20;;;;;;4951412;29;20378;-58
2021/03/30 06:51:16;;;;;;;;;;;22.80;50.20;;;;;;4887356;29;20320;-58
2021/03/30 06:53:42;;;;;;;;;;;22.80;50.20;;;;;;4912557;29;20054;-58
2021/03/30 06:56:08;;;;;;;;;;;22.80;50.30;;;;;;4915738;29;20415;-59
2021/03/30 06:58:52;;;;;;;;;;;22.80;50.30;;;;;;4936045;29;19917;-57
2021/03/30 07:01:18;;;;;;;;;;;22.80;50.30;;;;;;4936157;29;19911;-58
2021/03/30 07:03:44;;;;;;;;;;;22.80;50.40;;;;;;4955720;29;20299;-59
2021/03/30 07:06:11;;;;;;;;;;;22.80;50.40;;;;;;4957203;28;19929;-59
2021/03/30 07:08:37;;;;;;;;;;;22.80;50.40;;;;;;4958352;28;20030;-60
2021/03/30 07:11:03;;;;;;;;;;;22.80;50.40;;;;;;4957102;29;19918;-58
2021/03/30 07:13:28;;;;;;;;;;;22.80;50.50;;;;;;4963149;28;19913;-59
2021/03/30 07:15:57;;;;;;;;;;;22.80;50.50;;;;;;4958747;28;20324;-58
2021/03/30 07:18:26;;;;;;;;;;;22.80;50.50;;;;;;4971704;28;20000;-59
2021/03/30 07:20:52;;;;;;;;;;;22.80;50.50;;;;;;4956671;29;19957;-59
2021/03/30 07:23:22;;;;;;;;;;;22.80;50.50;;;;;;4943046;28;20283;-59
2021/03/30 07:25:56;;;;;;;;;;;22.80;50.50;;;;;;4958476;28;19960;-58
2021/03/30 07:28:23;;;;;;;;;;;22.90;50.60;;;;;;4971524;28;20037;-59
2021/03/30 07:30:53;;;;;;;;;;;22.90;50.60;;;;;;4957460;28;19917;-58
2021/03/30 07:33:23;;;;;;;;;;;22.90;50.60;;;;;;4941990;28;19909;-58
2021/03/30 07:35:49;;;;;;;;;;;22.90;50.60;;;;;;4984885;28;19909;-58
2021/03/30 07:38:26;;;;;;;;;;;22.90;50.60;;;;;;4991320;28;19914;-59
2021/03/30 07:40:51;;;;;;;;;;;23.00;50.60;;;;;;4974770;28;19922;-59
2021/03/30 07:43:22;;;;;;;;;;;23.00;50.60;;;;;;4973573;28;19940;-59
2021/03/30 07:45:49;;;;;;;;;;;23.00;50.60;;;;;;4956877;28;19910;-59
2021/03/30 07:48:18;;;;;;;;;;;23.00;50.60;;;;;;4972998;28;19912;-60
2021/03/30 07:50:59;;;;;;;;;;;23.10;50.60;;;;;;4956341;29;19910;-59
2021/03/30 07:53:44;;;;;;;;;;;23.10;50.60;;;;;;4956926;28;19915;-59
2021/03/30 07:56:11;;;;;;;;;;;23.10;50.50;;;;;;4938369;29;19910;-60
2021/03/30 07:58:41;;;;;;;;;;;23.10;50.50;;;;;;4941007;28;19906;-60
2021/03/30 08:01:07;;;;;;;;;;;23.10;50.50;;;;;;4974832;28;20001;-59
2021/03/30 08:03:34;;;;;;;;;;;23.10;50.50;;;;;;4972988;28;20012;-60
2021/03/30 08:06:03;;;;;;;;;;;23.10;50.50;;;;;;4937395;29;19918;-60
2021/03/30 08:08:29;;;;;;;;;;;23.20;50.50;;;;;;4938252;28;19914;-58
2021/03/30 08:10:55;;;;;;;;;;;23.20;50.50;;;;;;4987004;28;19968;-58
2021/03/30 08:13:21;;;;;;;;;;;23.20;50.50;;;;;;4965520;28;19935;-59
2021/03/30 08:15:55;;;;;;;;;;;23.20;50.50;;;;;;4956865;28;20352;-59
2021/03/30 08:18:23;;;;;;;;;;;23.20;50.40;;;;;;4972979;28;19920;-59
2021/03/30 08:20:53;;;;;;;;;;;23.30;50.50;;;;;;4963806;28;19917;-59
2021/03/30 08:23:20;;;;;;;;;;;23.20;50.40;;;;;;4973249;28;19913;-59
2021/03/30 08:25:47;;;;;;;;;;;23.30;50.50;;;;;;4976040;28;19918;-60
2021/03/30 08:28:36;;;;;;;;;;;23.30;50.40;;;;;;4973905;28;20236;-61
2021/03/30 08:31:03;;;;;;;;;;;23.30;50.30;;;;;;4931106;28;20271;-61
2021/03/30 08:33:32;;;;;;;;;;;23.40;50.30;;;;;;4972511;28;19905;-61
2021/03/30 08:36:34;;;;;;;;;;;23.30;50.30;;;;;;4976003;28;19909;-62
2021/03/30 08:39:03;;;;;;;;;;;23.40;50.30;;;;;;4893603;29;20282;-61
2021/03/30 08:41:47;;;;;;;;;;;23.40;50.30;;;;;;4885506;29;20293;-60
2021/03/30 08:44:14;;;;;;;;;;;23.40;50.30;;;;;;4879965;29;19920;-60
2021/03/30 08:46:41;;;;;;;;;;;23.40;50.30;;;;;;4885324;29;19922;-55
2021/03/30 08:49:19;;;;;;;;;;;23.40;50.30;;;;;;4877304;29;19969;-58
2021/03/30 08:51:45;;;;;;;;;;;23.40;50.30;;;;;;4877498;29;19918;-58
2021/03/30 08:54:11;;;;;;;;;;;23.40;50.20;;;;;;4893857;29;19914;-57
2021/03/30 08:56:37;;;;;;;;;;;23.40;50.20;;;;;;4853968;29;19912;-58
2021/03/30 08:59:03;;;;;;;;;;;23.40;50.20;;;;;;4877098;29;19907;-58
2021/03/30 09:01:29;;;;;;;;;;;23.40;50.20;;;;;;4875230;29;19979;-55
2021/03/30 09:03:55;;;;;;;;;;;23.40;50.10;;;;;;4875683;29;20370;-55
2021/03/30 09:06:34;;;;;;;;;;;23.50;50.20;;;;;;4861121;29;19919;-55
2021/03/30 09:09:00;;;;;;;;;;;23.50;50.20;;;;;;4868391;29;20487;-55
2021/03/30 09:11:27;;;;;;;;;;;23.50;50.10;;;;;;4858623;29;19999;-55
2021/03/30 09:14:00;;;;;;;;;;;23.50;50.10;;;;;;4948921;28;20267;-55
2021/03/30 09:16:26;;;;;;;;;;;23.60;50.10;;;;;;4974801;28;19938;-56
2021/03/30 09:19:11;;;;;;;;;;;23.60;50.10;;;;;;4976817;28;19917;-56
2021/03/30 09:21:37;;;;;;;;;;;23.60;50.10;;;;;;4977265;28;19910;-55
2021/03/30 09:24:08;;;;;;;;;;;23.70;50.70;;;;;;4974891;28;20360;-55
2021/03/30 09:26:37;;;;;;;;;;;23.70;50.10;;;;;;4997225;28;19921;-55
2021/03/30 09:29:03;;;;;;;;;;;23.70;50.00;;;;;;4980177;28;19941;-56
2021/03/30 09:31:29;;;;;;;;;;;23.80;50.00;;;;;;4977538;28;19958;-55
2021/03/30 09:33:57;;;;;;;;;;;23.90;50.00;;;;;;4978281;28;19917;-55
2021/03/30 09:36:23;;;;;;;;;;;24.00;50.00;;;;;;4985747;28;20004;-55
2021/03/30 09:38:51;;;;;;;;;;;24.00;49.90;;;;;;4996638;28;20007;-55
2021/03/30 09:41:43;;;;;;;;;;;24.10;49.90;;;;;;4980840;28;20041;-58
2021/03/30 09:44:09;;;;;;;;;;;24.10;49.80;;;;;;4973765;28;20375;-57
2021/03/30 09:46:35;;;;;;;;;;;24.20;49.80;;;;;;4969773;28;19910;-56
2021/03/30 09:49:02;;;;;;;;;;;24.20;49.70;;;;;;4961495;28;19918;-57
2021/03/30 09:51:28;;;;;;;;;;;24.30;49.70;;;;;;4955762;28;19946;-56
2021/03/30 09:53:54;;;;;;;;;;;24.30;49.60;;;;;;4986468;28;20380;-56
2021/03/30 09:56:20;;;;;;;;;;;24.40;49.50;;;;;;4979074;28;19914;-56
2021/03/30 09:58:47;;;;;;;;;;;24.50;49.50;;;;;;4975669;28;21687;-55
2021/03/30 10:01:12;;;;;;;;;;;24.50;49.50;;;;;;4977194;28;19910;-56
2021/03/30 10:03:38;;;;;;;;;;;24.60;49.40;;;;;;4957979;28;19928;-54
2021/03/30 10:06:16;;;;;;;;;;;24.60;49.20;;;;;;4957370;29;20341;-54
2021/03/30 10:08:42;;;;;;;;;;;24.70;48.90;;;;;;4940369;28;19910;-54
2021/03/30 10:11:08;;;;;;;;;;;24.70;48.70;;;;;;4940168;29;19911;-54
2021/03/30 10:13:36;;;;;;;;;;;24.70;48.60;;;;;;4939758;29;19907;-55
2021/03/30 10:16:07;;;;;;;;;;;24.80;48.50;;;;;;4958263;28;20335;-55
2021/03/30 10:18:33;;;;;;;;;;;24.80;48.50;;;;;;4972659;28;19910;-55
2021/03/30 10:21:04;;;;;;;;;;;24.80;48.50;;;;;;4957975;28;19911;-55
2021/03/30 10:23:33;;;;;;;;;;;24.90;48.40;;;;;;4973512;28;19996;-55
2021/03/30 10:26:09;;;;;;;;;;;24.90;48.40;;;;;;4967032;28;19914;-55
2021/03/30 10:28:35;;;;;;;;;;;25.00;48.20;;;;;;4959860;28;19913;-53
2021/03/30 10:31:14;;;;;;;;;;;25.10;48.30;;;;;;4983172;28;19910;-54
2021/03/30 10:33:42;;;;;;;;;;;25.10;48.30;;;;;;4977608;28;20386;-54
2021/03/30 10:36:14;;;;;;;;;;;25.20;48.30;;;;;;4991517;28;19957;-56
2021/03/30 10:38:58;;;;;;;;;;;25.20;48.30;;;;;;4995544;28;20020;-55
2021/03/30 10:41:30;;;;;;;;;;;25.30;48.30;;;;;;4975522;28;19965;-54
2021/03/30 10:43:57;;;;;;;;;;;25.40;48.20;;;;;;4975315;28;19926;-55
2021/03/30 10:46:23;;;;;;;;;;;25.40;48.10;;;;;;4970471;28;19913;-54
2021/03/30 10:48:59;;;;;;;;;;;25.50;47.80;;;;;;4968110;28;20642;-59
2021/03/30 10:51:25;;;;;;;;;;;25.60;47.70;;;;;;4973102;28;19918;-59
2021/03/30 10:53:51;;;;;;;;;;;25.70;47.80;;;;;;4939043;29;20314;-57
2021/03/30 10:56:16;;;;;;;;;;;25.80;47.80;;;;;;4956999;28;20408;-58
2021/03/30 10:58:42;;;;;;;;;;;25.90;47.70;;;;;;4969156;28;19922;-59
2021/03/30 11:01:08;;;;;;;;;;;26.00;47.60;;;;;;4975049;28;20012;-57
2021/03/30 11:03:34;;;;;;;;;;;26.10;47.50;;;;;;4957596;28;19918;-57
2021/03/30 11:06:01;;;;;;;;;;;26.10;47.40;;;;;;4975243;28;19914;-56
2021/03/30 11:08:27;;;;;;;;;;;26.20;47.30;;;;;;4975295;28;19937;-57
2021/03/30 11:10:53;;;;;;;;;;;26.30;47.40;;;;;;4974934;28;20280;-57
2021/03/30 11:13:19;;;;;;;;;;;26.40;47.20;;;;;;4974413;28;19941;-57
2021/03/30 11:15:45;;;;;;;;;;;26.40;47.00;;;;;;4956747;28;20000;-57
2021/03/30 11:18:11;;;;;;;;;;;26.40;46.80;;;;;;4975008;28;19921;-56
2021/03/30 11:20:37;;;;;;;;;;;26.60;46.80;;;;;;4974227;28;19910;-54
2021/03/30 11:23:05;;;;;;;;;;;26.70;46.60;;;;;;4974474;28;19920;-56
2021/03/30 11:25:31;;;;;;;;;;;26.80;46.50;;;;;;4974480;28;19906;-56
2021/03/30 11:28:03;;;;;;;;;;;26.80;46.30;;;;;;4974902;28;19985;-56
2021/03/30 11:30:55;;;;;;;;;;;26.80;46.20;;;;;;4974580;28;20008;-54
2021/03/30 11:33:28;;;;;;;;;;;26.80;46.10;;;;;;4974296;28;19961;-56
2021/03/30 11:35:58;;;;;;;;;;;26.70;45.70;;;;;;4957019;28;19910;-55
2021/03/30 11:38:24;;;;;;;;;;;26.70;45.50;;;;;;4974334;28;19910;-55
2021/03/30 11:40:50;;;;;;;;;;;26.70;45.50;;;;;;4974352;28;19910;-57
2021/03/30 11:43:17;;;;;;;;;;;26.70;45.50;;;;;;4970571;28;19921;-56
2021/03/30 11:45:43;;;;;;;;;;;26.80;45.60;;;;;;4954279;28;19933;-57
2021/03/30 11:48:09;;;;;;;;;;;26.80;45.70;;;;;;4974480;28;19906;-55
2021/03/30 11:50:35;;;;;;;;;;;26.90;45.70;;;;;;4974221;28;20328;-55
2021/03/30 11:53:00;;;;;;;;;;;27.00;45.60;;;;;;4974442;28;19941;-55
2021/03/30 11:55:26;;;;;;;;;;;27.00;45.50;;;;;;4974367;28;20019;-56
2021/03/30 11:57:53;;;;;;;;;;;27.10;45.40;;;;;;4974756;28;19912;-56
2021/03/30 12:00:19;;;;;;;;;;;27.10;45.20;;;;;;4974234;28;19918;-55
2021/03/30 12:02:46;;;;;;;;;;;27.20;45.00;;;;;;4973973;28;19918;-56
2021/03/30 12:05:12;;;;;;;;;;;27.20;44.90;;;;;;4974079;28;19926;-56
2021/03/30 12:07:38;;;;;;;;;;;27.20;44.90;;;;;;4957347;28;19917;-57
2021/03/30 12:10:04;;;;;;;;;;;27.20;44.70;;;;;;4956894;28;19909;-57
2021/03/30 12:12:30;;;;;;;;;;;27.30;44.70;;;;;;4957035;28;19913;-57
2021/03/30 12:14:57;;;;;;;;;;;27.20;44.50;;;;;;4974501;28;19913;-56
2021/03/30 12:17:22;;;;;;;;;;;27.20;44.40;;;;;;4956967;28;19906;-56
2021/03/30 12:19:48;;;;;;;;;;;27.20;44.40;;;;;;4974539;28;19906;-56
2021/03/30 12:22:14;;;;;;;;;;;27.20;44.40;;;;;;4974204;28;20276;-56
2021/03/30 12:24:40;;;;;;;;;;;27.10;44.40;;;;;;4956845;28;19913;-57
2021/03/30 12:27:09;;;;;;;;;;;27.10;44.40;;;;;;4974126;28;19921;-56
2021/03/30 12:29:38;;;;;;;;;;;27.10;44.40;;;;;;4956881;28;19925;-56
2021/03/30 12:32:05;;;;;;;;;;;27.00;44.40;;;;;;4974006;28;20028;-57
2021/03/30 12:34:30;;;;;;;;;;;27.00;44.50;;;;;;4974329;28;19914;-56
2021/03/30 12:36:56;;;;;;;;;;;27.00;44.50;;;;;;4974384;28;19912;-56
2021/03/30 12:39:22;;;;;;;;;;;27.00;44.50;;;;;;4974146;28;19980;-57
2021/03/30 12:41:48;;;;;;;;;;;27.00;44.60;;;;;;4974375;28;20431;-56
2021/03/30 12:44:14;;;;;;;;;;;26.90;44.50;;;;;;4974320;28;19910;-57
2021/03/30 12:46:40;;;;;;;;;;;27.00;44.60;;;;;;4974255;28;20424;-57
2021/03/30 12:49:06;;;;;;;;;;;26.90;44.50;;;;;;4974339;28;19952;-56
2021/03/30 12:51:31;;;;;;;;;;;26.90;44.60;;;;;;4978065;28;19910;-57
2021/03/30 12:53:58;;;;;;;;;;;26.90;44.60;;;;;;4980793;28;20000;-57
2021/03/30 12:56:24;;;;;;;;;;;26.90;44.60;;;;;;4995595;28;19910;-57
2021/03/30 12:58:50;;;;;;;;;;;26.90;44.40;;;;;;4980647;28;20261;-58
2021/03/30 13:01:16;;;;;;;;;;;26.80;44.40;;;;;;4980488;28;20363;-58
2021/03/30 13:03:42;;;;;;;;;;;26.80;44.50;;;;;;4980473;28;19964;-57
2021/03/30 13:06:08;;;;;;;;;;;26.80;44.60;;;;;;4980646;28;19964;-56
2021/03/30 13:08:34;;;;;;;;;;;26.80;44.70;;;;;;4980726;28;19910;-57
2021/03/30 13:10:59;;;;;;;;;;;26.80;44.70;;;;;;4962804;28;19916;-56
2021/03/30 13:13:25;;;;;;;;;;;26.80;44.70;;;;;;4980704;28;19914;-57
2021/03/30 13:15:51;;;;;;;;;;;26.80;44.70;;;;;;4963043;28;19938;-57
2021/03/30 13:18:17;;;;;;;;;;;26.90;44.80;;;;;;4980520;28;19913;-58
2021/03/30 13:20:43;;;;;;;;;;;26.90;44.80;;;;;;4980301;28;20260;-58
2021/03/30 13:23:09;;;;;;;;;;;26.90;44.80;;;;;;4979257;28;19924;-58
2021/03/30 13:25:35;;;;;;;;;;;26.90;44.70;;;;;;4980574;28;19954;-58
2021/03/30 13:28:01;;;;;;;;;;;26.90;44.60;;;;;;4980372;28;19917;-56
2021/03/30 13:30:28;;;;;;;;;;;26.90;44.70;;;;;;4963048;28;19973;-58
2021/03/30 13:32:53;;;;;;;;;;;26.90;44.70;;;;;;4980464;28;20261;-56
2021/03/30 13:35:19;;;;;;;;;;;26.90;44.70;;;;;;4980319;28;19964;-58
2021/03/30 13:37:45;;;;;;;;;;;26.90;44.60;;;;;;4980085;28;19910;-59
2021/03/30 13:40:11;;;;;;;;;;;26.90;44.70;;;;;;4963235;28;20045;-58
2021/03/30 13:42:37;;;;;;;;;;;26.90;44.70;;;;;;4980113;28;20324;-56
2021/03/30 13:45:03;;;;;;;;;;;26.90;44.70;;;;;;4980324;28;19931;-56
2021/03/30 13:47:29;;;;;;;;;;;26.90;44.70;;;;;;4980210;28;19906;-56
2021/03/30 13:49:55;;;;;;;;;;;26.90;44.70;;;;;;4963060;28;20018;-56
2021/03/30 13:52:21;;;;;;;;;;;26.90;44.70;;;;;;4962512;28;19917;-57
2021/03/30 13:54:47;;;;;;;;;;;26.90;44.70;;;;;;4962958;28;20420;-57
2021/03/30 13:57:13;;;;;;;;;;;26.90;44.70;;;;;;4980033;28;19910;-57
2021/03/30 13:59:38;;;;;;;;;;;27.00;44.60;;;;;;4962805;28;20333;-57
2021/03/30 14:02:04;;;;;;;;;;;27.00;44.40;;;;;;4961788;28;20359;-57
2021/03/30 14:04:30;;;;;;;;;;;27.00;44.40;;;;;;4976905;28;19922;-57
2021/03/30 14:06:56;;;;;;;;;;;27.00;44.20;;;;;;4977056;28;19914;-56
2021/03/30 14:09:23;;;;;;;;;;;27.00;44.00;;;;;;4959676;28;19910;-56
2021/03/30 14:11:53;;;;;;;;;;;27.00;43.90;;;;;;4977045;28;19957;-57
2021/03/30 14:14:21;;;;;;;;;;;27.00;43.90;;;;;;4976452;28;19910;-56
2021/03/30 14:21:51;;;;;;;;;;;27.00;43.90;;;;;;4976720;28;20241;-56
2021/03/30 14:24:38;;;;;;;;;;;27.00;43.90;;;;;;4976655;28;19914;-56
2021/03/30 14:27:04;;;;;;;;;;;27.10;43.90;;;;;;4976623;28;19956;-56
2021/03/30 14:29:30;;;;;;;;;;;27.10;43.80;;;;;;4976597;28;19910;-58
2021/03/30 14:31:58;;;;;;;;;;;27.10;43.80;;;;;;4991067;28;19917;-58